Time;durP1;ratioP1;P1;durP2;ratioP2;P2;SDS_P1;SDS_P2;PMS_P1;PMS_P2;Temp;Humidity;BMP_temperature;BMP_pressure;BME280_temperature;BME280_humidity;BME280_pressure;Samples;Min_cycle;Max_cycle;Signal;HPM_P1;HPM_P2
2023/08/04 00:03:37;;;;;;;1.50;0.75;;;18.70;87.00;;;;;;10498314;28;20222;-88
2023/08/04 00:08:39;;;;;;;1.30;1.00;;;18.50;88.00;;;;;;10498936;28;20252;-88
2023/08/04 00:13:42;;;;;;;1.85;0.60;;;18.30;90.40;;;;;;10498836;28;20199;-88
2023/08/04 00:18:44;;;;;;;5.93;1.02;;;18.10;91.00;;;;;;10497754;28;20272;-87
2023/08/04 00:23:47;;;;;;;1.25;1.15;;;18.10;91.40;;;;;;10498255;28;20214;-87
2023/08/04 00:28:49;;;;;;;1.90;1.30;;;18.10;91.80;;;;;;10497317;28;20202;-88
2023/08/04 00:33:52;;;;;;;1.88;0.98;;;18.30;91.50;;;;;;10497849;28;20198;-88
2023/08/04 00:38:55;;;;;;;3.28;0.85;;;18.40;91.40;;;;;;10497492;28;20577;-88
2023/08/04 00:43:57;;;;;;;1.15;0.60;;;18.40;91.00;;;;;;10497567;28;20210;-88
2023/08/04 00:49:00;;;;;;;1.13;0.63;;;18.20;91.50;;;;;;10478668;28;20669;-87
2023/08/04 00:54:04;;;;;;;2.55;1.75;;;18.20;92.10;;;;;;10497009;28;20251;-87
2023/08/04 00:59:06;;;;;;;3.83;0.63;;;17.90;93.10;;;;;;10479041;28;20623;-88
2023/08/04 01:04:09;;;;;;;1.10;0.80;;;17.60;94.00;;;;;;10478224;28;20283;-88
2023/08/04 01:09:44;;;;;;;0.95;0.82;;;17.50;95.20;;;;;;10477705;28;20202;-88
2023/08/04 01:14:52;;;;;;;1.58;0.80;;;17.50;95.10;;;;;;10445608;28;20202;-88
2023/08/04 01:19:56;;;;;;;1.33;1.00;;;17.70;95.00;;;;;;10496304;28;20578;-88
2023/08/04 01:24:59;;;;;;;2.50;0.70;;;17.70;95.00;;;;;;10477894;28;20735;-87
2023/08/04 01:30:03;;;;;;;1.10;0.90;;;17.80;94.90;;;;;;10495930;28;20556;-87
2023/08/04 01:35:09;;;;;;;1.67;0.60;;;17.70;95.10;;;;;;10460561;28;20260;-87
2023/08/04 01:40:13;;;;;;;1.30;1.05;;;17.50;95.70;;;;;;10494553;28;20777;-88
2023/08/04 01:45:15;;;;;;;0.90;0.90;;;17.40;96.00;;;;;;10495594;28;20225;-88
2023/08/04 01:50:18;;;;;;;1.08;0.50;;;17.50;96.00;;;;;;10476772;28;20549;-87
2023/08/04 01:55:21;;;;;;;1.65;0.85;;;17.50;96.10;;;;;;10495488;28;20194;-88
2023/08/04 02:00:23;;;;;;;3.80;0.90;;;17.50;96.00;;;;;;10476793;28;20564;-87
2023/08/04 02:05:26;;;;;;;2.45;0.63;;;17.50;96.40;;;;;;10496093;28;20194;-87
2023/08/04 02:10:28;;;;;;;3.80;0.90;;;17.20;97.10;;;;;;10495376;28;20194;-87
2023/08/04 02:15:31;;;;;;;0.50;0.45;;;17.00;97.80;;;;;;10476878;28;20203;-87
2023/08/04 02:20:33;;;;;;;0.60;0.40;;;16.90;98.40;;;;;;10465950;28;20259;-87
2023/08/04 02:25:36;;;;;;;1.20;0.60;;;16.70;99.10;;;;;;10484527;28;20194;-88
2023/08/04 02:30:38;;;;;;;4.25;0.80;;;16.60;99.60;;;;;;10484558;28;20669;-87
2023/08/04 02:35:41;;;;;;;0.80;0.60;;;16.40;99.90;;;;;;10484284;28;20206;-88
2023/08/04 02:40:44;;;;;;;0.60;0.52;;;16.30;99.90;;;;;;10484280;28;20226;-88
2023/08/04 02:45:52;;;;;;;1.92;0.70;;;16.30;99.90;;;;;;10502681;28;20602;-87
2023/08/04 02:51:06;;;;;;;0.88;0.77;;;16.30;99.90;;;;;;10502023;28;20202;-88
2023/08/04 02:56:18;;;;;;;3.00;1.00;;;16.20;99.90;;;;;;10483604;28;20629;-87
2023/08/04 03:01:21;;;;;;;1.17;0.98;;;16.30;99.90;;;;;;10466235;28;20226;-87
2023/08/04 03:06:24;;;;;;;2.78;0.82;;;16.30;99.90;;;;;;10501489;28;20221;-88
2023/08/04 03:11:26;;;;;;;0.80;0.70;;;16.50;99.90;;;;;;10501384;28;20252;-87
2023/08/04 03:16:29;;;;;;;3.53;0.93;;;16.70;99.90;;;;;;10500099;28;20585;-88
2023/08/04 03:21:33;;;;;;;1.90;1.00;;;16.90;99.90;;;;;;10500049;28;20226;-87
2023/08/04 03:26:36;;;;;;;2.92;1.10;;;17.00;99.60;;;;;;10500685;28;20195;-88
2023/08/04 03:31:38;;;;;;;2.58;0.70;;;17.00;99.30;;;;;;10499411;28;20202;-87
2023/08/04 03:36:41;;;;;;;2.53;0.75;;;17.10;99.10;;;;;;10500109;28;20564;-87
2023/08/04 03:41:44;;;;;;;1.23;0.75;;;17.30;98.90;;;;;;10500079;28;20241;-87
2023/08/04 03:46:47;;;;;;;2.65;0.73;;;17.20;99.10;;;;;;10499839;28;20202;-88
2023/08/04 03:51:49;;;;;;;0.95;0.70;;;17.10;99.80;;;;;;10481499;28;20256;-88
2023/08/04 03:56:52;;;;;;;2.15;0.85;;;17.10;99.80;;;;;;10498734;28;20210;-88
2023/08/04 04:01:54;;;;;;;2.17;1.00;;;17.20;99.60;;;;;;10499184;28;20218;-87
2023/08/04 04:06:57;;;;;;;0.68;0.68;;;17.40;98.70;;;;;;10499041;28;20218;-87
2023/08/04 04:11:59;;;;;;;0.55;0.50;;;17.40;98.70;;;;;;10497983;28;20263;-87
2023/08/04 04:17:02;;;;;;;4.38;0.63;;;17.40;99.10;;;;;;10497729;28;20203;-87
2023/08/04 04:22:05;;;;;;;1.48;0.88;;;17.20;99.90;;;;;;10497388;28;20573;-87
2023/08/04 04:27:08;;;;;;;1.80;1.17;;;17.00;99.90;;;;;;10498506;28;20210;-87
2023/08/04 04:32:10;;;;;;;2.63;1.02;;;16.90;99.90;;;;;;10500407;28;20206;-87
2023/08/04 04:37:14;;;;;;;1.65;0.75;;;16.90;99.90;;;;;;10497874;28;20237;-88
2023/08/04 04:42:17;;;;;;;4.30;1.42;;;16.90;99.90;;;;;;10479140;28;20712;-88
2023/08/04 04:47:19;;;;;;;1.30;0.80;;;16.90;99.90;;;;;;10497432;28;20194;-87
2023/08/04 04:52:36;;;;;;;3.40;1.35;;;17.00;99.90;;;;;;10496356;28;20765;-88
2023/08/04 04:57:40;;;;;;;0.88;0.70;;;17.00;99.90;;;;;;10497073;28;20252;-87
2023/08/04 05:02:43;;;;;;;2.90;0.90;;;17.20;99.90;;;;;;10478128;28;20249;-87
2023/08/04 05:07:45;;;;;;;1.10;1.00;;;17.20;99.90;;;;;;10478333;28;20198;-87
2023/08/04 05:12:48;;;;;;;1.40;0.80;;;17.30;99.90;;;;;;10461141;28;20267;-87
2023/08/04 05:17:50;;;;;;;1.40;0.82;;;17.60;99.90;;;;;;10454914;28;20191;-87
2023/08/04 05:22:53;;;;;;;3.22;1.10;;;17.80;99.90;;;;;;10454673;28;20214;-87
2023/08/04 05:27:55;;;;;;;0.60;0.50;;;18.10;98.70;;;;;;10454243;28;20249;-87
2023/08/04 05:32:58;;;;;;;0.93;0.70;;;18.20;99.00;;;;;;10454380;28;20228;-87
2023/08/04 05:38:00;;;;;;;1.67;0.70;;;18.40;98.30;;;;;;10436647;28;20565;-87
2023/08/04 05:43:04;;;;;;;0.98;0.70;;;18.60;96.90;;;;;;10453865;28;20231;-88
2023/08/04 05:48:07;;;;;;;0.98;0.90;;;18.80;96.10;;;;;;10435673;28;20620;-87
2023/08/04 05:53:10;;;;;;;1.42;1.00;;;19.10;93.70;;;;;;10453908;28;20207;-87
2023/08/04 05:58:13;;;;;;;1.38;0.82;;;19.40;93.10;;;;;;10436347;28;20203;-87
2023/08/04 06:03:16;;;;;;;1.02;0.82;;;19.60;93.70;;;;;;10454072;28;20218;-87
2023/08/04 06:08:20;;;;;;;3.17;0.90;;;19.80;91.80;;;;;;10435942;28;20207;-88
2023/08/04 06:13:23;;;;;;;1.40;1.30;;;20.00;90.90;;;;;;10453733;28;20199;-87
2023/08/04 06:18:25;;;;;;;1.77;1.00;;;20.10;90.60;;;;;;10435135;28;20245;-87
2023/08/04 06:23:28;;;;;;;0.65;0.65;;;20.20;90.20;;;;;;10453720;28;20215;-87
2023/08/04 06:28:31;;;;;;;1.10;1.00;;;20.30;86.90;;;;;;10453644;28;20199;-87
2023/08/04 06:33:33;;;;;;;1.23;0.77;;;20.40;87.00;;;;;;10453480;28;20207;-87
2023/08/04 06:38:36;;;;;;;1.75;1.02;;;20.30;91.20;;;;;;10452433;28;20297;-87
2023/08/04 06:43:38;;;;;;;1.50;1.13;;;20.30;90.50;;;;;;10453147;28;20245;-87
2023/08/04 06:48:41;;;;;;;1.10;0.82;;;20.40;87.90;;;;;;10452226;28;20207;-87
2023/08/04 06:53:43;;;;;;;1.13;1.02;;;20.40;90.60;;;;;;10452360;28;20750;-88
2023/08/04 06:58:46;;;;;;;1.17;1.08;;;20.60;87.70;;;;;;10434734;28;20199;-87
2023/08/04 07:03:48;;;;;;;1.58;1.05;;;20.70;85.30;;;;;;10434623;28;20227;-87
2023/08/04 07:08:51;;;;;;;1.67;0.95;;;20.80;85.30;;;;;;10459679;28;20191;-88
2023/08/04 07:13:53;;;;;;;1.42;1.20;;;20.90;82.40;;;;;;10459924;28;20195;-87
2023/08/04 07:18:56;;;;;;;1.77;1.08;;;20.90;79.10;;;;;;10458495;28;20242;-88
2023/08/04 07:23:59;;;;;;;1.98;1.58;;;20.80;86.30;;;;;;10458876;28;20280;-87
2023/08/04 07:29:01;;;;;;;1.40;1.08;;;20.90;82.20;;;;;;10459578;28;20199;-88
2023/08/04 07:34:05;;;;;;;1.33;1.17;;;21.20;82.80;;;;;;10441269;28;20207;-88
2023/08/04 07:39:07;;;;;;;1.33;1.23;;;21.20;79.10;;;;;;10458146;28;20284;-87
2023/08/04 07:44:10;;;;;;;1.60;1.02;;;21.20;76.70;;;;;;10440335;28;20231;-88
2023/08/04 07:49:12;;;;;;;1.40;1.20;;;21.20;76.70;;;;;;10458263;28;20249;-88
2023/08/04 07:54:15;;;;;;;1.70;1.27;;;21.20;76.10;;;;;;10458417;28;20237;-87
2023/08/04 07:59:17;;;;;;;1.40;1.30;;;21.50;83.00;;;;;;10458175;28;20199;-88
2023/08/04 08:04:20;;;;;;;1.70;1.60;;;21.40;75.60;;;;;;10457685;28;20269;-87
2023/08/04 08:09:22;;;;;;;1.50;1.40;;;21.50;74.30;;;;;;10457860;28;20257;-87
2023/08/04 08:14:25;;;;;;;1.48;1.38;;;21.50;75.00;;;;;;10457101;28;20563;-87
2023/08/04 08:19:27;;;;;;;1.52;1.42;;;21.60;75.10;;;;;;10456864;28;20203;-87
2023/08/04 08:24:30;;;;;;;1.67;1.58;;;21.70;73.80;;;;;;10457170;28;20215;-87
2023/08/04 08:29:33;;;;;;;2.38;1.35;;;21.60;72.20;;;;;;10456030;28;20286;-87
2023/08/04 08:34:36;;;;;;;1.33;1.23;;;21.70;74.60;;;;;;10456723;28;20617;-87
2023/08/04 08:39:38;;;;;;;1.88;1.38;;;22.00;72.00;;;;;;10456595;28;20292;-87
2023/08/04 08:44:40;;;;;;;1.40;1.30;;;22.10;69.40;;;;;;10456541;28;20253;-87
2023/08/04 08:49:50;;;;;;;1.70;1.60;;;22.00;72.80;;;;;;10455932;28;20199;-87
2023/08/04 08:54:54;;;;;;;1.77;1.63;;;22.00;71.40;;;;;;10437604;28;20207;-87
2023/08/04 09:00:01;;;;;;;4.90;1.60;;;21.90;75.10;;;;;;10438168;28;20199;-87
2023/08/04 09:05:05;;;;;;;2.55;1.92;;;21.70;76.60;;;;;;10455566;28;20214;-87
2023/08/04 09:10:08;;;;;;;2.25;1.65;;;21.70;75.30;;;;;;10455477;28;20562;-87
2023/08/04 09:15:12;;;;;;;1.52;1.42;;;21.90;75.30;;;;;;10455385;28;20268;-88
2023/08/04 09:20:28;;;;;;;5.57;1.83;;;21.80;71.90;;;;;;10454712;28;20203;-87
2023/08/04 09:25:31;;;;;;;3.28;1.60;;;21.90;74.40;;;;;;10436505;28;20221;-87
2023/08/04 09:30:33;;;;;;;1.65;1.55;;;22.20;69.50;;;;;;10454235;28;20617;-87
2023/08/04 09:35:38;;;;;;;2.70;1.60;;;22.30;72.90;;;;;;10454886;28;20233;-87
2023/08/04 09:40:40;;;;;;;1.75;1.65;;;22.10;68.10;;;;;;10454421;28;20226;-87
2023/08/04 09:45:43;;;;;;;3.75;1.50;;;21.90;68.50;;;;;;10453306;28;20280;-87
2023/08/04 09:50:45;;;;;;;3.08;1.98;;;21.90;70.00;;;;;;10453797;28;20229;-88
2023/08/04 09:55:49;;;;;;;1.52;1.42;;;22.10;69.20;;;;;;10436302;28;20333;-87
2023/08/04 10:00:52;;;;;;;3.25;3.03;;;22.10;66.60;;;;;;10453240;28;20241;-87
2023/08/04 10:05:59;;;;;;;5.15;2.05;;;22.20;68.10;;;;;;10453691;28;20274;-87
2023/08/04 10:11:02;;;;;;;1.77;1.67;;;22.20;71.20;;;;;;10435595;28;20336;-88
2023/08/04 10:16:08;;;;;;;2.70;2.30;;;22.10;67.40;;;;;;10452907;28;20229;-87
2023/08/04 10:21:11;;;;;;;1.88;1.77;;;22.20;66.40;;;;;;10453865;28;20203;-88
2023/08/04 10:26:14;;;;;;;1.75;1.45;;;22.20;66.30;;;;;;10453033;28;20222;-88
2023/08/04 10:31:18;;;;;;;1.55;1.45;;;22.00;69.00;;;;;;10418408;28;20202;-87
2023/08/04 10:36:21;;;;;;;1.80;1.70;;;21.90;68.00;;;;;;10453127;28;20668;-87
2023/08/04 10:41:24;;;;;;;1.50;1.40;;;21.70;70.00;;;;;;10458294;28;20262;-86
2023/08/04 10:46:26;;;;;;;2.42;1.77;;;21.70;72.90;;;;;;10461072;28;20222;-87
2023/08/04 10:51:29;;;;;;;2.28;1.85;;;21.60;71.70;;;;;;10460697;28;20257;-87
2023/08/04 10:56:36;;;;;;;1.90;1.67;;;21.70;73.40;;;;;;10442279;28;20261;-88
2023/08/04 11:01:38;;;;;;;2.67;1.90;;;21.90;69.50;;;;;;10460139;28;20206;-87
2023/08/04 11:06:41;;;;;;;6.68;2.20;;;22.00;75.50;;;;;;10441664;28;20265;-87
2023/08/04 11:11:45;;;;;;;1.83;1.73;;;22.40;73.20;;;;;;10441865;28;20253;-87
2023/08/04 11:16:49;;;;;;;1.90;1.80;;;22.80;69.30;;;;;;10442268;28;20249;-88
2023/08/04 11:21:52;;;;;;;2.40;2.20;;;23.00;68.20;;;;;;10459423;28;20254;-88
2023/08/04 11:26:54;;;;;;;2.00;1.80;;;23.00;61.90;;;;;;10459268;28;20219;-88
2023/08/04 11:31:57;;;;;;;5.18;2.10;;;22.60;61.50;;;;;;10460727;28;20198;-87
2023/08/04 11:37:00;;;;;;;2.10;1.90;;;22.40;67.00;;;;;;10459912;28;20207;-87
2023/08/04 11:42:02;;;;;;;3.38;2.20;;;22.50;64.80;;;;;;10457909;28;20202;-88
2023/08/04 11:47:05;;;;;;;2.28;1.90;;;22.70;67.30;;;;;;10458632;28;20281;-87
2023/08/04 11:52:09;;;;;;;2.63;2.20;;;23.00;62.10;;;;;;10455835;28;20248;-87
2023/08/04 11:57:17;;;;;;;2.70;2.08;;;22.90;61.10;;;;;;10458283;28;20261;-87
2023/08/04 12:02:21;;;;;;;2.30;2.13;;;22.90;60.80;;;;;;10457723;28;20211;-87
2023/08/04 12:07:27;;;;;;;3.50;2.10;;;23.00;65.50;;;;;;10457736;28;20222;-88
2023/08/04 12:12:42;;;;;;;3.70;1.83;;;23.10;62.00;;;;;;10458090;28;20213;-88
2023/08/04 12:17:44;;;;;;;2.65;2.17;;;23.10;61.50;;;;;;10458217;28;20336;-88
2023/08/04 12:22:47;;;;;;;2.67;2.13;;;23.10;60.80;;;;;;10456378;28;20628;-87
2023/08/04 12:27:50;;;;;;;3.05;2.00;;;23.30;58.50;;;;;;10457484;28;20245;-88
2023/08/04 12:32:52;;;;;;;2.47;2.10;;;23.30;57.70;;;;;;10439313;28;20605;-88
2023/08/04 12:37:55;;;;;;;2.95;2.38;;;23.30;57.30;;;;;;10438739;28;20235;-87
2023/08/04 12:42:57;;;;;;;3.40;1.77;;;23.20;58.30;;;;;;10437746;28;20202;-88
2023/08/04 12:48:00;;;;;;;2.78;2.35;;;23.20;55.80;;;;;;10455576;28;20679;-88
2023/08/04 12:53:03;;;;;;;3.10;2.75;;;23.10;62.10;;;;;;10455659;28;20265;-87
2023/08/04 12:58:05;;;;;;;2.17;1.98;;;23.20;62.40;;;;;;10438663;28;20194;-88
2023/08/04 13:03:08;;;;;;;2.03;1.92;;;23.20;55.70;;;;;;10455038;28;20618;-87
2023/08/04 13:08:11;;;;;;;2.65;2.42;;;23.10;54.30;;;;;;10454504;28;20550;-87
2023/08/04 13:13:13;;;;;;;1.88;1.77;;;23.10;55.00;;;;;;10455420;28;20188;-87
2023/08/04 13:18:16;;;;;;;1.80;1.70;;;23.10;55.00;;;;;;10454940;28;20221;-87
2023/08/04 13:23:18;;;;;;;3.55;1.65;;;23.20;55.10;;;;;;10454932;28;20215;-88
2023/08/04 13:28:21;;;;;;;2.72;2.05;;;23.30;53.40;;;;;;10454524;28;20245;-88
2023/08/04 13:33:23;;;;;;;2.60;1.67;;;23.40;54.60;;;;;;10454879;28;20570;-88
2023/08/04 13:38:26;;;;;;;1.60;1.50;;;23.30;52.40;;;;;;10435863;28;20250;-87
2023/08/04 13:43:28;;;;;;;2.25;1.60;;;23.40;53.00;;;;;;10454417;28;20207;-88
2023/08/04 13:48:32;;;;;;;1.80;1.70;;;23.50;52.50;;;;;;10454405;28;20195;-88
2023/08/04 13:53:35;;;;;;;3.28;1.90;;;23.50;50.20;;;;;;10454194;28;20199;-88
2023/08/04 13:58:38;;;;;;;1.88;1.55;;;23.40;48.90;;;;;;10454180;28;20218;-87
2023/08/04 14:03:40;;;;;;;1.75;1.65;;;23.50;50.00;;;;;;10453812;28;20219;-88
2023/08/04 14:08:43;;;;;;;1.98;1.80;;;23.40;49.00;;;;;;10453643;28;20253;-87
2023/08/04 14:13:45;;;;;;;1.80;1.70;;;23.30;49.20;;;;;;10453962;28;20242;-88
2023/08/04 14:18:48;;;;;;;1.50;1.40;;;23.30;48.70;;;;;;10462186;28;20233;-88
2023/08/04 14:23:53;;;;;;;1.60;1.50;;;23.30;49.40;;;;;;10461421;28;20223;-88
2023/08/04 14:28:55;;;;;;;3.65;1.73;;;23.30;49.60;;;;;;10461379;28;20199;-88
2023/08/04 14:33:58;;;;;;;1.58;1.48;;;23.20;49.40;;;;;;10443696;28;20199;-87
2023/08/04 14:39:01;;;;;;;2.20;2.00;;;23.20;48.80;;;;;;10443541;28;20235;-88
2023/08/04 14:44:04;;;;;;;2.55;2.08;;;23.20;48.80;;;;;;10460096;28;20249;-87
2023/08/04 14:49:07;;;;;;;1.90;1.80;;;23.30;48.30;;;;;;10460854;28;20248;-88
2023/08/04 14:54:09;;;;;;;2.05;1.95;;;23.20;48.10;;;;;;10460043;28;20207;-88
2023/08/04 14:59:11;;;;;;;2.50;1.77;;;23.10;48.80;;;;;;10460454;28;20199;-88
2023/08/04 15:04:14;;;;;;;3.00;1.80;;;23.20;49.20;;;;;;10459450;28;20234;-88
2023/08/04 15:09:17;;;;;;;2.45;1.70;;;23.20;48.60;;;;;;10460153;28;20616;-88
2023/08/04 15:14:21;;;;;;;1.92;1.67;;;23.30;48.50;;;;;;10460070;28;20198;-88
2023/08/04 15:19:23;;;;;;;1.50;1.40;;;23.20;47.60;;;;;;10459713;28;20327;-88
2023/08/04 15:24:26;;;;;;;2.03;1.50;;;23.20;47.50;;;;;;10459237;28;20612;-88
2023/08/04 15:29:29;;;;;;;2.22;1.98;;;23.00;46.40;;;;;;10458094;28;20195;-88
2023/08/04 15:34:31;;;;;;;2.70;1.83;;;23.00;47.10;;;;;;10458892;28;20207;-87
2023/08/04 15:39:34;;;;;;;2.08;1.98;;;23.10;46.70;;;;;;10458864;28;20693;-88
2023/08/04 15:44:36;;;;;;;2.20;2.00;;;23.10;46.90;;;;;;10457845;28;20222;-88
2023/08/04 15:49:39;;;;;;;1.92;1.60;;;23.00;46.50;;;;;;10458914;28;20200;-87
2023/08/04 15:54:41;;;;;;;1.92;1.80;;;23.00;46.50;;;;;;10441224;28;20199;-88
2023/08/04 15:59:44;;;;;;;2.97;1.77;;;23.00;47.40;;;;;;10440042;28;20207;-87
2023/08/04 16:04:46;;;;;;;2.78;2.10;;;23.00;47.10;;;;;;10457884;28;20276;-87
2023/08/04 16:09:51;;;;;;;1.90;1.77;;;22.90;47.00;;;;;;10439683;28;20233;-88
2023/08/04 16:14:54;;;;;;;2.33;2.10;;;22.90;47.00;;;;;;10439910;28;20207;-87
2023/08/04 16:19:56;;;;;;;3.08;1.75;;;22.90;47.90;;;;;;10439475;28;20211;-87
2023/08/04 16:24:59;;;;;;;1.90;1.80;;;22.90;48.20;;;;;;10457092;28;20577;-88
2023/08/04 16:30:02;;;;;;;4.13;2.65;;;22.80;47.70;;;;;;10439322;28;20237;-88
2023/08/04 16:35:05;;;;;;;2.97;2.00;;;22.70;47.40;;;;;;10455862;28;20292;-87
2023/08/04 16:40:08;;;;;;;1.75;1.65;;;22.70;47.60;;;;;;10456176;28;20281;-88
2023/08/04 16:45:10;;;;;;;1.85;1.75;;;22.70;47.20;;;;;;10455851;28;20774;-87
2023/08/04 16:50:13;;;;;;;2.10;1.90;;;22.60;47.70;;;;;;10455727;28;20207;-88
2023/08/04 16:55:16;;;;;;;4.13;1.70;;;22.50;50.00;;;;;;10456119;28;20253;-88
2023/08/04 17:00:19;;;;;;;2.97;2.08;;;22.40;50.40;;;;;;10455558;28;20210;-88
2023/08/04 17:05:21;;;;;;;6.38;1.67;;;22.40;55.40;;;;;;10455389;28;20211;-88
2023/08/04 17:10:24;;;;;;;2.17;1.95;;;22.20;60.40;;;;;;10455512;28;20192;-88
2023/08/04 17:15:27;;;;;;;7.03;2.60;;;22.00;69.40;;;;;;10454425;28;20218;-88
2023/08/04 17:20:39;;;;;;;6.65;2.25;;;21.80;69.40;;;;;;10455086;28;20542;-87
2023/08/04 17:25:42;;;;;;;5.78;1.98;;;21.60;68.10;;;;;;10437365;28;20245;-88
2023/08/04 17:30:44;;;;;;;2.17;1.98;;;21.50;70.40;;;;;;10437028;28;20200;-88
2023/08/04 17:35:47;;;;;;;3.45;2.20;;;21.40;75.50;;;;;;10454701;28;20199;-88
2023/08/04 17:41:00;;;;;;;1.75;1.63;;;21.30;86.60;;;;;;10436848;28;20262;-88
2023/08/04 17:46:03;;;;;;;5.10;2.35;;;21.30;90.00;;;;;;10436937;28;20225;-88
2023/08/04 17:51:05;;;;;;;2.60;2.20;;;21.30;92.30;;;;;;10436283;28;20217;-88
2023/08/04 17:56:08;;;;;;;5.00;2.22;;;21.30;90.00;;;;;;10453776;28;20546;-88
2023/08/04 18:01:11;;;;;;;3.70;2.78;;;21.20;89.80;;;;;;10436952;28;20198;-88
2023/08/04 18:06:14;;;;;;;4.90;2.85;;;21.10;90.20;;;;;;10452181;28;20284;-88
2023/08/04 18:11:18;;;;;;;5.75;2.97;;;21.00;91.00;;;;;;10452210;28;20581;-88
2023/08/04 18:16:21;;;;;;;4.75;2.65;;;20.80;90.00;;;;;;10435927;28;20206;-88
2023/08/04 18:21:24;;;;;;;3.53;2.53;;;20.70;92.60;;;;;;10453033;28;20207;-88
2023/08/04 18:26:27;;;;;;;10.82;2.58;;;20.60;92.30;;;;;;10453467;28;20214;-88
2023/08/04 18:31:29;;;;;;;4.68;3.22;;;20.50;90.00;;;;;;10453484;28;20234;-88
2023/08/04 18:36:32;;;;;;;7.13;4.00;;;20.40;90.40;;;;;;10452104;28;20280;-88
2023/08/04 18:41:35;;;;;;;9.85;3.85;;;20.20;93.20;;;;;;10451227;28;20297;-88
2023/08/04 18:46:37;;;;;;;7.70;2.95;;;20.00;95.20;;;;;;10452568;28;20276;-89
2023/08/04 18:51:40;;;;;;;4.30;3.13;;;19.80;95.00;;;;;;10434871;28;20579;-88
2023/08/04 18:56:42;;;;;;;5.13;2.92;;;19.60;95.90;;;;;;10434578;28;20203;-88
2023/08/04 19:01:45;;;;;;;8.38;2.85;;;19.40;96.00;;;;;;10439307;28;20233;-88
2023/08/04 19:06:47;;;;;;;7.70;3.78;;;19.20;98.30;;;;;;10442179;28;20222;-88
2023/08/04 19:11:51;;;;;;;8.32;2.85;;;19.00;99.90;;;;;;10460723;28;20605;-87
2023/08/04 19:16:54;;;;;;;5.10;3.80;;;18.80;99.90;;;;;;10460194;28;20231;-88
2023/08/04 19:21:57;;;;;;;17.38;4.35;;;18.70;99.90;;;;;;10459908;28;20257;-88
2023/08/04 19:27:00;;;;;;;6.40;4.65;;;18.50;99.80;;;;;;10441581;28;20219;-88
2023/08/04 19:32:06;;;;;;;11.02;6.20;;;18.40;99.90;;;;;;10458808;28;20230;-88
2023/08/04 19:37:09;;;;;;;7.65;5.10;;;18.40;99.90;;;;;;10458813;28;20234;-87
2023/08/04 19:42:11;;;;;;;16.42;7.75;;;18.30;99.90;;;;;;10440808;28;20625;-88
2023/08/04 19:47:14;;;;;;;20.27;6.80;;;18.30;99.90;;;;;;10458587;28;20226;-88
2023/08/04 19:52:16;;;;;;;10.13;4.43;;;18.20;99.90;;;;;;10440693;28;20207;-88
2023/08/04 19:57:19;;;;;;;7.57;4.53;;;18.20;99.90;;;;;;10441121;28;20607;-88
2023/08/04 20:02:21;;;;;;;6.95;4.63;;;18.10;99.90;;;;;;10440745;28;20203;-88
2023/08/04 20:07:24;;;;;;;8.65;4.47;;;18.20;99.90;;;;;;10457082;28;20223;-88
2023/08/04 20:12:26;;;;;;;6.97;5.07;;;18.10;99.90;;;;;;10439601;28;20621;-88
2023/08/04 20:17:29;;;;;;;5.60;4.15;;;18.10;99.90;;;;;;10457359;28;20256;-88
2023/08/04 20:22:32;;;;;;;4.82;4.07;;;18.00;99.90;;;;;;10457299;28;20198;-88
2023/08/04 20:27:34;;;;;;;8.10;4.30;;;17.90;99.90;;;;;;10456822;28;20908;-88
2023/08/04 20:32:37;;;;;;;7.88;3.95;;;17.80;99.90;;;;;;10438624;28;20761;-88
2023/08/04 20:37:40;;;;;;;8.85;5.63;;;17.70;99.90;;;;;;10438642;28;20646;-88
2023/08/04 20:42:42;;;;;;;4.55;4.15;;;17.70;99.90;;;;;;10456717;28;20191;-88
2023/08/04 20:47:45;;;;;;;7.07;5.30;;;17.60;99.90;;;;;;10456080;28;20223;-88
2023/08/04 20:52:47;;;;;;;8.77;6.05;;;17.60;99.90;;;;;;10456124;28;20249;-88
2023/08/04 20:57:50;;;;;;;7.72;4.95;;;17.50;99.90;;;;;;10456039;28;20196;-88
2023/08/04 21:02:52;;;;;;;12.50;6.10;;;17.40;99.90;;;;;;10455993;28;20226;-88
2023/08/04 21:07:55;;;;;;;11.77;6.22;;;17.30;99.90;;;;;;10455551;28;20603;-88
2023/08/04 21:12:58;;;;;;;10.55;6.00;;;17.10;99.90;;;;;;10455605;28;20199;-88
2023/08/04 21:18:02;;;;;;;9.63;6.30;;;17.00;99.90;;;;;;10455415;28;20229;-88
2023/08/04 21:23:04;;;;;;;8.25;5.75;;;16.80;99.90;;;;;;10453402;28;20207;-88
2023/08/04 21:28:07;;;;;;;13.02;6.10;;;16.70;99.90;;;;;;10437297;28;20272;-87
2023/08/04 21:33:10;;;;;;;8.10;5.65;;;16.60;99.90;;;;;;10436651;28;20203;-88
2023/08/04 21:38:13;;;;;;;10.77;6.63;;;16.60;99.90;;;;;;10436440;28;20261;-88
2023/08/04 21:43:19;;;;;;;7.93;5.20;;;16.50;99.90;;;;;;10437208;28;20195;-88
2023/08/04 21:48:22;;;;;;;10.40;6.28;;;16.40;99.90;;;;;;10436598;28;20292;-88
2023/08/04 21:53:25;;;;;;;6.82;4.88;;;16.40;99.90;;;;;;10453888;28;20237;-88
2023/08/04 21:58:27;;;;;;;10.18;6.18;;;16.30;99.90;;;;;;10454317;28;20198;-88
2023/08/04 22:03:30;;;;;;;4.60;4.20;;;16.20;99.90;;;;;;10452597;28;20207;-88
2023/08/04 22:08:32;;;;;;;4.47;3.63;;;16.20;99.90;;;;;;10435620;28;20602;-88
2023/08/04 22:13:36;;;;;;;5.85;5.20;;;16.10;99.90;;;;;;10436297;28;20202;-88
2023/08/04 22:18:39;;;;;;;7.35;5.38;;;16.10;99.90;;;;;;10452969;28;20673;-88
2023/08/04 22:23:42;;;;;;;10.07;5.68;;;16.00;99.90;;;;;;10453739;28;20541;-88
2023/08/04 22:28:44;;;;;;;11.05;5.85;;;15.90;99.90;;;;;;10452662;28;20223;-88
2023/08/04 22:33:47;;;;;;;4.45;3.70;;;15.80;99.90;;;;;;10452728;28;20568;-88
2023/08/04 22:38:49;;;;;;;8.20;4.78;;;15.80;99.90;;;;;;10460822;28;20288;-88
2023/08/04 22:43:52;;;;;;;8.55;5.97;;;15.60;99.90;;;;;;10461505;28;20530;-88
2023/08/04 22:48:54;;;;;;;9.48;5.15;;;15.60;99.90;;;;;;10461122;28;20632;-88
2023/08/04 22:54:00;;;;;;;6.68;4.07;;;15.40;99.90;;;;;;10461000;28;20252;-88
2023/08/04 22:59:02;;;;;;;8.95;4.97;;;15.40;99.90;;;;;;10442993;28;20260;-88
2023/08/04 23:04:05;;;;;;;6.22;2.88;;;15.40;99.90;;;;;;10460464;28;20196;-88
2023/08/04 23:09:07;;;;;;;5.38;3.72;;;15.30;99.90;;;;;;10460330;28;20634;-88
2023/08/04 23:14:10;;;;;;;3.40;3.15;;;15.30;99.90;;;;;;10442643;28;20191;-88
2023/08/04 23:19:12;;;;;;;5.40;4.22;;;15.30;99.90;;;;;;10460065;28;20543;-88
2023/08/04 23:24:15;;;;;;;5.07;4.65;;;15.30;99.90;;;;;;10459285;28;20206;-88
2023/08/04 23:29:18;;;;;;;5.95;3.55;;;15.20;99.90;;;;;;10441735;28;20230;-88
2023/08/04 23:34:22;;;;;;;4.75;3.85;;;15.10;99.90;;;;;;10459512;28;20191;-87
2023/08/04 23:39:25;;;;;;;7.45;4.68;;;15.10;99.90;;;;;;10459235;28;20293;-88
2023/08/04 23:44:27;;;;;;;7.05;4.72;;;15.00;99.90;;;;;;10459225;28;20203;-88
2023/08/04 23:49:30;;;;;;;5.90;3.92;;;14.90;99.90;;;;;;10439922;28;20261;-88
2023/08/04 23:54:32;;;;;;;5.60;4.43;;;14.90;99.90;;;;;;10459046;28;20221;-88
2023/08/04 23:59:36;;;;;;;10.75;5.43;;;14.90;99.90;;;;;;10458416;28;20191;-88
